createdAt,value
2022-11-29T00:00:12.107Z,49.86
2022-11-29T00:05:15.800Z,50.97
2022-11-29T00:10:21.107Z,52.25
2022-11-29T00:15:24.664Z,52.99
2022-11-29T00:20:28.252Z,54.22
2022-11-29T00:25:33.471Z,55.14
2022-11-29T00:30:37.098Z,56.55
2022-11-29T00:35:40.685Z,56.47
2022-11-29T00:40:51.750Z,56.52
2022-11-29T00:45:55.369Z,56.67
2022-11-29T00:50:59.246Z,56.01
2022-11-29T00:56:05.652Z,56.43
2022-11-29T01:01:09.344Z,57.02
2022-11-29T01:06:15.705Z,56.81
2022-11-29T01:11:22.655Z,57.46
2022-11-29T01:16:27.181Z,58.32
2022-11-29T01:21:31.068Z,58.20
2022-11-29T01:26:37.189Z,58.53
2022-11-29T01:31:40.976Z,58.09
2022-11-29T01:36:44.540Z,58.31
2022-11-29T01:41:49.716Z,58.63
2022-11-29T01:46:54.586Z,58.72
2022-11-29T01:52:01.622Z,59.08
2022-11-29T01:57:08.834Z,59.88
2022-11-29T02:02:14.677Z,60.15
2022-11-29T02:07:18.711Z,59.92
2022-11-29T02:12:33.835Z,59.81
2022-11-29T02:17:50.515Z,59.13
2022-11-29T02:23:02.646Z,59.87
2022-11-29T02:28:53.176Z,61.67
2022-11-29T02:34:17.057Z,62.38
2022-11-29T02:39:34.209Z,62.34
2022-11-29T02:44:56.583Z,62.51
2022-11-29T02:50:19.070Z,62.80
2022-11-29T02:55:29.500Z,62.77
2022-11-29T03:00:37.259Z,61.91
2022-11-29T03:05:51.430Z,61.90
2022-11-29T03:11:04.209Z,61.55
2022-11-29T03:16:18.057Z,61.19
2022-11-29T03:21:35.597Z,61.33
2022-11-29T03:26:45.229Z,61.20
2022-11-29T03:31:54.984Z,61.32
2022-11-29T03:37:07.041Z,61.76
2022-11-29T03:42:14.955Z,62.39
2022-11-29T03:47:24.485Z,63.72
2022-11-29T03:52:35.665Z,62.19
2022-11-29T03:57:50.466Z,62.29
2022-11-29T04:03:32.993Z,62.76
2022-11-29T04:09:22.289Z,63.09
2022-11-29T04:15:06.477Z,63.06
2022-11-29T04:20:51.686Z,63.74
2022-11-29T04:26:26.449Z,63.84
2022-11-29T04:31:38.144Z,64.12
2022-11-29T04:36:57.998Z,64.36
2022-11-29T04:42:25.190Z,64.36
2022-11-29T04:47:44.954Z,64.27
2022-11-29T04:53:13.498Z,64.23
2022-11-29T04:58:26.243Z,64.57
2022-11-29T05:03:39.761Z,64.09
2022-11-29T05:08:56.969Z,63.91
2022-11-29T05:14:09.497Z,63.81
2022-11-29T05:19:41.979Z,63.36
2022-11-29T05:24:54.380Z,63.29
2022-11-29T05:30:06.113Z,63.24
2022-11-29T05:35:41.672Z,63.12
2022-11-29T05:40:54.177Z,62.82
2022-11-29T05:46:09.219Z,62.58
2022-11-29T05:51:21.957Z,62.50
2022-11-29T05:56:35.184Z,62.33
2022-11-29T06:01:49.416Z,62.33
2022-11-29T06:07:01.249Z,62.19
2022-11-29T06:12:07.756Z,62.01
2022-11-29T06:17:38.761Z,62.90
2022-11-29T06:23:00.757Z,63.05
2022-11-29T06:28:21.674Z,63.21
2022-11-29T06:33:34.244Z,63.73
2022-11-29T06:38:38.138Z,63.70
2022-11-29T06:43:42.212Z,63.52
2022-11-29T06:48:51.696Z,64.20
2022-11-29T06:54:05.098Z,64.07
2022-11-29T06:59:14.974Z,63.93
2022-11-29T07:04:35.817Z,64.21
2022-11-29T07:09:39.527Z,64.24
2022-11-29T07:14:43.965Z,64.27
2022-11-29T07:20:00.538Z,64.33
2022-11-29T07:25:18.107Z,64.20
2022-11-29T07:30:23.340Z,64.33
2022-11-29T07:35:34.324Z,64.34
2022-11-29T07:40:44.987Z,64.64
2022-11-29T07:45:48.669Z,64.60
2022-11-29T07:50:54.022Z,64.44
2022-11-29T07:55:58.985Z,64.42
2022-11-29T08:01:02.594Z,63.84
2022-11-29T08:06:08.039Z,63.34
2022-11-29T08:11:13.497Z,63.32
2022-11-29T08:16:20.799Z,62.82
2022-11-29T08:21:26.033Z,62.21
2022-11-29T08:26:31.646Z,61.86
2022-11-29T08:31:35.915Z,61.63
2022-11-29T08:36:41.138Z,60.99
2022-11-29T08:41:44.913Z,60.77
2022-11-29T08:46:48.496Z,60.53
2022-11-29T08:51:55.346Z,59.14
2022-11-29T08:57:37.898Z,59.34
2022-11-29T09:02:22.432Z,59.05
2022-11-29T09:07:27.648Z,58.54
2022-11-29T09:12:32.177Z,58.39
2022-11-29T09:17:35.892Z,58.66
2022-11-29T09:22:41.092Z,58.14
2022-11-29T09:27:44.609Z,57.91
2022-11-29T09:32:48.124Z,57.37
2022-11-29T09:37:53.306Z,56.22
2022-11-29T09:43:01.481Z,55.91
2022-11-29T09:48:29.933Z,54.52
2022-11-29T09:53:47.077Z,54.61
2022-11-29T09:58:56.173Z,54.84
2022-11-29T10:04:04.581Z,54.34
2022-11-29T10:09:17.860Z,55.06
2022-11-29T10:14:27.705Z,55.31
2022-11-29T10:19:35.971Z,55.06
2022-11-29T10:24:45.675Z,54.34
2022-11-29T10:29:49.541Z,54.32
2022-11-29T10:34:53.453Z,54.06
2022-11-29T10:40:02.290Z,53.45
2022-11-29T10:45:11.823Z,53.92
2022-11-29T10:50:19.785Z,52.69
2022-11-29T10:55:27.007Z,53.09
2022-11-29T11:00:31.350Z,53.38
2022-11-29T11:05:34.954Z,53.42
2022-11-29T11:10:40.199Z,52.81
2022-11-29T11:15:43.794Z,53.00
2022-11-29T11:20:54.634Z,52.55
2022-11-29T11:26:03.008Z,53.19
2022-11-29T11:31:08.256Z,52.71
2022-11-29T11:36:14.521Z,52.64
2022-11-29T11:41:23.193Z,52.46
2022-11-29T11:46:47.860Z,52.45
2022-11-29T11:51:51.983Z,52.89
2022-11-29T11:56:57.390Z,52.70
2022-11-29T12:02:00.982Z,53.11
2022-11-29T12:07:10.450Z,52.72
2022-11-29T12:12:20.353Z,52.34
2022-11-29T12:17:32.258Z,52.50
2022-11-29T12:22:47.923Z,52.70
2022-11-29T12:27:53.651Z,52.66
2022-11-29T12:33:16.933Z,52.63
2022-11-29T12:38:38.130Z,52.51
2022-11-29T12:43:54.112Z,52.34
2022-11-29T12:49:05.458Z,53.05
2022-11-29T12:54:34.799Z,52.63
2022-11-29T13:00:00.309Z,52.86
2022-11-29T13:05:12.223Z,53.06
2022-11-29T13:10:31.012Z,53.10
2022-11-29T13:15:45.385Z,53.47
2022-11-29T13:20:58.790Z,53.85
2022-11-29T13:26:06.486Z,55.24
2022-11-29T13:31:18.040Z,56.28
2022-11-29T13:36:26.474Z,56.66
2022-11-29T13:41:34.903Z,57.04
2022-11-29T13:46:47.852Z,57.77
2022-11-29T13:52:05.654Z,58.21
2022-11-29T13:57:10.706Z,58.09
2022-11-29T14:02:29.967Z,59.00
2022-11-29T14:07:33.611Z,58.58
2022-11-29T14:12:42.488Z,59.01
2022-11-29T14:17:56.550Z,59.29
2022-11-29T14:23:16.499Z,59.80
2022-11-29T14:28:31.527Z,59.82
2022-11-29T14:34:01.125Z,59.59
2022-11-29T14:39:24.830Z,59.42
2022-11-29T14:44:30.034Z,58.82
2022-11-29T14:49:41.182Z,59.32
2022-11-29T14:54:55.847Z,59.33
2022-11-29T15:00:02.208Z,59.19
2022-11-29T15:05:16.574Z,60.13
2022-11-29T15:10:24.870Z,59.78
2022-11-29T15:15:38.864Z,60.76
2022-11-29T15:20:57.301Z,60.22
2022-11-29T15:26:02.258Z,60.72
2022-11-29T15:31:08.222Z,60.77
2022-11-29T15:36:18.074Z,58.84
2022-11-29T15:41:23.711Z,59.33
2022-11-29T15:46:29.426Z,59.64
2022-11-29T15:51:38.591Z,59.50
2022-11-29T15:56:46.605Z,59.07
2022-11-29T16:01:55.259Z,59.25
2022-11-29T16:07:00.533Z,59.00
2022-11-29T16:12:04.750Z,59.37
2022-11-29T16:17:09.633Z,58.57
2022-11-29T16:22:23.151Z,57.18
2022-11-29T16:27:26.741Z,57.81
2022-11-29T16:32:32.853Z,56.73
2022-11-29T16:37:42.518Z,56.38
2022-11-29T16:43:06.712Z,55.54
2022-11-29T16:48:31.853Z,53.94
2022-11-29T16:53:38.772Z,53.45
2022-11-29T16:59:26.929Z,52.34
2022-11-29T17:04:09.404Z,54.03
2022-11-29T17:09:22.627Z,49.96
2022-11-29T17:14:26.371Z,52.13
2022-11-29T17:19:30.456Z,50.75
2022-11-29T17:24:35.672Z,50.21
2022-11-29T17:29:39.254Z,50.19
2022-11-29T17:34:42.881Z,48.71
2022-11-29T17:39:48.323Z,47.91
2022-11-29T17:44:52.015Z,47.47
2022-11-29T17:49:55.645Z,47.58
2022-11-29T17:55:00.906Z,46.03
2022-11-29T18:00:05.497Z,46.15
2022-11-29T18:05:09.850Z,44.89
2022-11-29T18:10:15.232Z,42.15
2022-11-29T18:15:19.123Z,41.90
2022-11-29T18:20:22.667Z,42.66
2022-11-29T18:25:38.793Z,41.80
2022-11-29T18:30:42.979Z,40.82
2022-11-29T18:35:46.747Z,41.33
2022-11-29T18:40:51.945Z,41.11
2022-11-29T18:45:55.513Z,41.05
2022-11-29T18:51:03.104Z,42.04
2022-11-29T18:56:09.802Z,40.86
2022-11-29T19:01:15.074Z,40.77
2022-11-29T19:06:21.174Z,39.85
2022-11-29T19:11:26.386Z,39.34
2022-11-29T19:16:31.208Z,39.15
2022-11-29T19:21:34.915Z,37.92
2022-11-29T19:26:40.425Z,37.24
2022-11-29T19:31:44.912Z,42.11
2022-11-29T19:36:48.842Z,38.63
2022-11-29T19:41:54.083Z,37.69
2022-11-29T19:46:57.720Z,38.45
2022-11-29T19:52:02.965Z,35.78
2022-11-29T19:57:08.196Z,35.68
2022-11-29T20:02:12.631Z,37.69
2022-11-29T20:07:16.367Z,38.35
2022-11-29T20:12:21.631Z,35.20
2022-11-29T20:17:25.316Z,34.92
2022-11-29T20:22:29.035Z,35.36
2022-11-29T20:27:34.447Z,34.54
2022-11-29T20:32:38.495Z,35.28
2022-11-29T20:38:02.725Z,31.98
2022-11-29T20:43:16.610Z,32.47
2022-11-29T20:48:22.766Z,32.22
2022-11-29T20:53:32.828Z,31.22
2022-11-29T20:58:38.307Z,31.70
2022-11-29T21:03:42.092Z,32.06
2022-11-29T21:08:45.697Z,31.42
2022-11-29T21:13:51.630Z,32.75
2022-11-29T21:18:55.277Z,30.76
2022-11-29T21:24:05.723Z,30.60
2022-11-29T21:29:16.820Z,31.21
2022-11-29T21:34:21.378Z,31.70
2022-11-29T21:39:30.719Z,30.45
2022-11-29T21:44:36.070Z,30.53
2022-11-29T21:49:40.000Z,31.25
2022-11-29T21:54:43.849Z,30.51
2022-11-29T21:59:49.312Z,29.75
2022-11-29T22:04:52.985Z,30.42
2022-11-29T22:09:58.632Z,29.65
2022-11-29T22:15:04.037Z,28.76
2022-11-29T22:20:08.704Z,29.90
2022-11-29T22:25:12.467Z,31.03
2022-11-29T22:30:18.269Z,31.58
2022-11-29T22:35:22.082Z,32.79
2022-11-29T22:40:25.712Z,32.65
2022-11-29T22:45:30.921Z,32.97
2022-11-29T22:50:34.591Z,33.07
2022-11-29T22:55:38.270Z,33.56
2022-11-29T23:00:43.545Z,34.63
2022-11-29T23:05:47.218Z,34.99
2022-11-29T23:10:56.343Z,35.41
2022-11-29T23:16:01.968Z,37.51
2022-11-29T23:21:08.267Z,39.53
2022-11-29T23:26:18.812Z,40.31
2022-11-29T23:31:24.934Z,41.38
2022-11-29T23:36:28.672Z,40.88
2022-11-29T23:41:32.213Z,41.04
2022-11-29T23:46:37.518Z,42.61
2022-11-29T23:51:41.145Z,43.60
2022-11-29T23:56:44.764Z,44.58
